createdAt,value
2022-10-12T00:01:44.015Z,16.30
2022-10-12T00:04:46.982Z,16.30
2022-10-12T00:07:49.852Z,16.30
2022-10-12T00:10:52.722Z,16.20
2022-10-12T00:13:57.802Z,16.20
2022-10-12T00:17:00.853Z,16.20
2022-10-12T00:20:03.891Z,16.20
2022-10-12T00:23:07.806Z,16.20
2022-10-12T00:26:13.344Z,16.20
2022-10-12T00:29:17.621Z,16.20
2022-10-12T00:32:20.642Z,16.20
2022-10-12T00:35:23.541Z,16.30
2022-10-12T00:38:26.367Z,16.20
2022-10-12T00:41:32.377Z,16.20
2022-10-12T00:44:42.195Z,16.20
2022-10-12T00:47:50.888Z,16.10
2022-10-12T00:50:55.876Z,16.10
2022-10-12T00:54:03.172Z,16.10
2022-10-12T00:57:07.132Z,16.10
2022-10-12T01:00:12.995Z,16.10
2022-10-12T01:03:19.498Z,16.10
2022-10-12T01:06:22.470Z,16.00
2022-10-12T01:09:25.488Z,16.10
2022-10-12T01:12:29.152Z,16.00
2022-10-12T01:15:37.641Z,16.00
2022-10-12T01:18:46.800Z,16.00
2022-10-12T01:21:54.456Z,16.00
2022-10-12T01:25:08.577Z,15.90
2022-10-12T01:28:19.535Z,15.90
2022-10-12T01:31:32.761Z,15.90
2022-10-12T01:34:44.660Z,15.90
2022-10-12T01:37:54.253Z,15.90
2022-10-12T01:41:02.040Z,15.80
2022-10-12T01:44:05.061Z,15.80
2022-10-12T01:47:09.388Z,15.80
2022-10-12T01:50:15.284Z,15.90
2022-10-12T01:53:28.861Z,15.80
2022-10-12T01:56:40.261Z,15.80
2022-10-12T01:59:54.304Z,15.80
2022-10-12T02:03:08.039Z,15.90
2022-10-12T02:06:14.652Z,15.90
2022-10-12T02:09:22.800Z,15.90
2022-10-12T02:12:29.812Z,15.90
2022-10-12T02:15:34.504Z,15.90
2022-10-12T02:18:42.175Z,15.90
2022-10-12T02:21:47.681Z,15.90
2022-10-12T02:24:53.413Z,15.90
2022-10-12T02:28:00.842Z,15.90
2022-10-12T02:31:11.285Z,15.80
2022-10-12T02:34:19.287Z,15.80
2022-10-12T02:37:33.561Z,15.80
2022-10-12T02:40:39.763Z,15.80
2022-10-12T02:43:46.291Z,15.80
2022-10-12T02:46:50.591Z,15.80
2022-10-12T02:49:56.736Z,15.90
2022-10-12T02:53:00.410Z,15.90
2022-10-12T02:56:05.501Z,15.80
2022-10-12T02:59:08.372Z,15.90
2022-10-12T03:02:11.388Z,15.90
2022-10-12T03:05:15.707Z,15.90
2022-10-12T03:08:18.568Z,15.90
2022-10-12T03:11:21.442Z,15.90
2022-10-12T03:14:26.798Z,15.90
2022-10-12T03:17:29.710Z,15.90
2022-10-12T03:20:34.178Z,15.90
2022-10-12T03:23:37.067Z,15.80
2022-10-12T03:26:40.393Z,15.80
2022-10-12T03:29:43.245Z,15.80
2022-10-12T03:32:46.123Z,15.80
2022-10-12T03:35:50.494Z,15.80
2022-10-12T03:38:53.386Z,15.80
2022-10-12T03:41:56.274Z,15.80
2022-10-12T03:44:59.126Z,15.80
2022-10-12T03:48:04.980Z,15.80
2022-10-12T03:51:09.580Z,15.80
2022-10-12T03:54:12.493Z,15.80
2022-10-12T03:57:15.362Z,15.70
2022-10-12T04:00:18.620Z,15.70
2022-10-12T04:03:21.725Z,15.60
2022-10-12T04:06:25.985Z,15.60
2022-10-12T04:09:28.845Z,15.70
2022-10-12T04:12:31.747Z,15.70
2022-10-12T04:15:34.636Z,15.70
2022-10-12T04:18:37.545Z,15.80
2022-10-12T04:21:41.948Z,15.80
2022-10-12T04:24:44.816Z,15.80
2022-10-12T04:27:47.735Z,15.80
2022-10-12T04:30:50.579Z,15.80
2022-10-12T04:33:56.771Z,15.80
2022-10-12T04:37:00.982Z,15.80
2022-10-12T04:40:04.207Z,15.80
2022-10-12T04:43:07.451Z,15.80
2022-10-12T04:46:10.376Z,15.70
2022-10-12T04:49:13.399Z,15.70
2022-10-12T04:52:17.729Z,15.70
2022-10-12T04:55:20.605Z,15.70
2022-10-12T04:58:23.474Z,15.70
2022-10-12T05:01:26.475Z,15.70
2022-10-12T05:04:29.478Z,15.70
2022-10-12T05:07:33.835Z,15.70
2022-10-12T05:10:36.676Z,15.70
2022-10-12T05:13:39.690Z,15.70
2022-10-12T05:16:42.636Z,15.70
2022-10-12T05:19:45.511Z,15.70
2022-10-12T05:22:49.776Z,15.70
2022-10-12T05:25:52.634Z,15.70
2022-10-12T05:28:55.542Z,15.70
2022-10-12T05:31:58.418Z,15.70
2022-10-12T05:35:01.293Z,15.70
2022-10-12T05:38:05.758Z,15.70
2022-10-12T05:41:08.636Z,15.70
2022-10-12T05:44:11.499Z,15.70
2022-10-12T05:47:14.355Z,15.70
2022-10-12T05:50:17.413Z,15.70
2022-10-12T05:53:21.872Z,15.70
2022-10-12T05:56:24.854Z,15.70
2022-10-12T05:59:27.778Z,15.70
2022-10-12T06:02:30.658Z,15.70
2022-10-12T06:05:33.532Z,15.70
2022-10-12T06:08:37.732Z,15.70
2022-10-12T06:11:40.676Z,15.70
2022-10-12T06:14:43.587Z,15.80
2022-10-12T06:17:46.729Z,15.80
2022-10-12T06:20:56.540Z,15.80
2022-10-12T06:24:13.516Z,15.80
2022-10-12T06:27:19.694Z,15.80
2022-10-12T06:30:22.592Z,15.80
2022-10-12T06:33:25.942Z,15.80
2022-10-12T06:36:28.871Z,15.80
2022-10-12T06:39:33.212Z,15.80
2022-10-12T06:42:36.305Z,15.80
2022-10-12T06:45:41.009Z,15.80
2022-10-12T06:48:43.879Z,15.80
2022-10-12T06:51:46.791Z,15.80
2022-10-12T06:54:51.105Z,15.90
2022-10-12T06:57:53.997Z,15.90
2022-10-12T07:00:56.896Z,15.80
2022-10-12T07:04:00.930Z,15.90
2022-10-12T07:07:04.143Z,15.90
2022-10-12T07:10:09.124Z,15.80
2022-10-12T07:13:11.998Z,15.90
2022-10-12T07:16:14.897Z,15.80
2022-10-12T07:19:17.760Z,15.80
2022-10-12T07:22:20.666Z,15.90
2022-10-12T07:25:25.081Z,15.90
2022-10-12T07:28:28.585Z,15.90
2022-10-12T07:31:31.711Z,15.90
2022-10-12T07:34:35.096Z,15.90
2022-10-12T07:37:38.254Z,15.90
2022-10-12T07:40:42.765Z,15.90
2022-10-12T07:43:45.662Z,15.90
2022-10-12T07:46:48.520Z,15.90
2022-10-12T07:49:51.377Z,15.90
2022-10-12T07:52:54.260Z,15.90
2022-10-12T07:56:02.476Z,15.90
2022-10-12T07:59:05.449Z,15.90
2022-10-12T08:02:08.353Z,15.90
2022-10-12T08:05:11.375Z,15.90
2022-10-12T08:08:14.308Z,15.90
2022-10-12T08:11:20.011Z,16.00
2022-10-12T08:14:23.207Z,15.90
2022-10-12T08:17:26.100Z,15.90
2022-10-12T08:20:29.008Z,15.90
2022-10-12T08:23:31.919Z,15.90
2022-10-12T08:26:36.457Z,15.90
2022-10-12T08:29:40.361Z,16.00
2022-10-12T08:32:43.615Z,16.00
2022-10-12T08:35:47.681Z,15.90
2022-10-12T08:38:53.994Z,15.90
2022-10-12T08:42:08.861Z,15.90
2022-10-12T08:45:30.617Z,16.00
2022-10-12T08:48:39.326Z,16.00
2022-10-12T08:51:50.024Z,16.00
2022-10-12T08:54:53.775Z,16.00
2022-10-12T08:57:58.679Z,16.00
2022-10-12T09:01:15.702Z,16.10
2022-10-12T09:04:35.235Z,16.20
2022-10-12T09:07:43.042Z,16.20
2022-10-12T09:10:48.525Z,16.20
2022-10-12T09:13:59.349Z,16.20
2022-10-12T09:17:04.007Z,16.10
2022-10-12T09:20:17.224Z,16.10
2022-10-12T09:23:26.207Z,16.10
2022-10-12T09:26:36.096Z,16.20
2022-10-12T09:29:40.411Z,16.20
2022-10-12T09:33:07.849Z,16.20
2022-10-12T09:36:13.866Z,16.20
2022-10-12T09:39:20.288Z,16.10
2022-10-12T09:42:23.460Z,16.10
2022-10-12T09:45:29.713Z,16.30
2022-10-12T09:48:32.657Z,16.30
2022-10-12T09:51:36.337Z,16.40
2022-10-12T09:54:42.821Z,16.50
2022-10-12T09:57:53.718Z,16.50
2022-10-12T10:01:16.678Z,16.50
2022-10-12T10:04:26.667Z,16.60
2022-10-12T10:07:33.256Z,16.70
2022-10-12T10:10:36.161Z,16.70
2022-10-12T10:13:39.459Z,16.70
2022-10-12T10:16:51.226Z,16.80
2022-10-12T10:19:55.574Z,16.80
2022-10-12T10:22:59.836Z,16.90
2022-10-12T10:26:07.281Z,16.90
2022-10-12T10:29:24.739Z,17.10
2022-10-12T10:32:30.007Z,17.10
2022-10-12T10:35:33.208Z,17.10
2022-10-12T10:38:55.283Z,17.20
2022-10-12T10:42:10.409Z,17.20
2022-10-12T10:45:25.378Z,17.20
2022-10-12T10:48:32.299Z,17.30
2022-10-12T10:51:49.706Z,17.20
2022-10-12T10:55:16.776Z,17.20
2022-10-12T10:58:30.215Z,17.20
2022-10-12T11:01:38.774Z,17.20
2022-10-12T11:04:46.343Z,17.10
2022-10-12T11:07:52.286Z,17.00
2022-10-12T11:10:59.685Z,17.10
2022-10-12T11:14:08.062Z,17.20
2022-10-12T11:17:18.120Z,17.20
2022-10-12T11:20:35.316Z,17.30
2022-10-12T11:23:45.160Z,17.30
2022-10-12T11:26:52.240Z,17.40
2022-10-12T11:30:09.257Z,17.40
2022-10-12T11:33:16.434Z,17.30
2022-10-12T11:36:23.752Z,17.30
2022-10-12T11:39:33.793Z,17.30
2022-10-12T11:42:43.405Z,17.40
2022-10-12T11:45:49.780Z,17.40
2022-10-12T11:48:57.331Z,17.40
2022-10-12T11:52:06.715Z,17.40
2022-10-12T11:55:26.289Z,17.40
2022-10-12T11:58:55.807Z,17.40
2022-10-12T12:02:03.981Z,17.40
2022-10-12T12:05:16.237Z,17.50
2022-10-12T12:08:44.967Z,17.50
2022-10-12T12:11:48.038Z,17.40
2022-10-12T12:15:06.215Z,17.50
2022-10-12T12:18:13.548Z,17.50
2022-10-12T12:21:16.594Z,17.40
2022-10-12T12:24:20.920Z,17.50
2022-10-12T12:27:29.624Z,17.60
2022-10-12T12:30:37.105Z,17.60
2022-10-12T12:33:42.490Z,17.60
2022-10-12T12:36:47.813Z,17.60
2022-10-12T12:39:57.584Z,17.60
2022-10-12T12:43:35.461Z,17.60
2022-10-12T12:47:44.133Z,17.70
2022-10-12T12:50:42.688Z,17.70
2022-10-12T12:53:49.528Z,17.70
2022-10-12T12:57:12.721Z,17.70
2022-10-12T13:00:21.471Z,17.70
2022-10-12T13:04:15.974Z,17.70
2022-10-12T13:07:45.055Z,17.70
2022-10-12T13:10:58.959Z,17.70
2022-10-12T13:14:14.878Z,17.70
2022-10-12T13:17:36.271Z,17.70
2022-10-12T13:20:49.363Z,17.70
2022-10-12T13:23:57.756Z,17.70
2022-10-12T13:27:07.258Z,17.70
2022-10-12T13:30:20.367Z,17.70
2022-10-12T13:33:32.116Z,17.60
2022-10-12T13:36:47.204Z,17.70
2022-10-12T13:39:52.380Z,17.70
2022-10-12T13:42:55.405Z,17.80
2022-10-12T13:45:59.647Z,17.70
2022-10-12T13:49:03.531Z,17.70
2022-10-12T13:52:21.661Z,17.70
2022-10-12T13:55:26.657Z,17.70
2022-10-12T13:58:33.776Z,17.70
2022-10-12T14:01:49.143Z,17.70
2022-10-12T14:04:54.981Z,17.70
2022-10-12T14:08:03.350Z,17.70
2022-10-12T14:11:06.978Z,17.70
2022-10-12T14:14:20.244Z,17.70
2022-10-12T14:17:24.925Z,17.70
2022-10-12T14:20:30.581Z,17.70
2022-10-12T14:23:33.490Z,17.70
2022-10-12T14:26:39.877Z,17.70
2022-10-12T14:29:44.899Z,17.70
2022-10-12T14:32:50.345Z,17.80
2022-10-12T14:36:12.092Z,17.80
2022-10-12T14:39:15.441Z,17.80
2022-10-12T14:42:21.937Z,17.80
2022-10-12T14:45:26.519Z,17.70
2022-10-12T14:48:30.738Z,17.70
2022-10-12T14:51:34.425Z,17.70
2022-10-12T14:54:37.272Z,17.80
2022-10-12T14:57:40.121Z,17.80
2022-10-12T15:00:44.570Z,17.80
2022-10-12T15:03:48.904Z,17.80
2022-10-12T15:06:51.755Z,17.70
2022-10-12T15:09:54.965Z,17.80
2022-10-12T15:12:57.893Z,17.60
2022-10-12T15:16:02.644Z,17.60
2022-10-12T15:19:06.870Z,17.60
2022-10-12T15:22:11.357Z,17.50
2022-10-12T15:25:22.216Z,17.50
2022-10-12T15:28:25.302Z,17.50
2022-10-12T15:31:28.208Z,17.50
2022-10-12T15:34:32.520Z,17.60
2022-10-12T15:37:35.388Z,17.60
2022-10-12T15:40:39.856Z,17.50
2022-10-12T15:43:42.772Z,17.50
2022-10-12T15:46:46.325Z,17.40
2022-10-12T15:49:50.535Z,17.40
2022-10-12T15:52:54.364Z,17.30
2022-10-12T15:55:57.497Z,17.40
2022-10-12T15:59:04.269Z,17.40
2022-10-12T16:02:11.988Z,17.30
2022-10-12T16:05:20.149Z,17.30
2022-10-12T16:08:22.975Z,17.30
2022-10-12T16:11:25.941Z,17.30
2022-10-12T16:14:28.765Z,17.30
2022-10-12T16:17:31.690Z,17.40
2022-10-12T16:20:38.183Z,17.40
2022-10-12T16:23:41.605Z,17.30
2022-10-12T16:26:47.209Z,17.30
2022-10-12T16:29:50.145Z,17.30
2022-10-12T16:32:53.463Z,17.40
2022-10-12T16:35:57.677Z,17.40
2022-10-12T16:39:00.537Z,17.30
2022-10-12T16:42:03.688Z,17.30
2022-10-12T16:45:07.781Z,17.30
2022-10-12T16:48:10.689Z,17.30
2022-10-12T16:51:15.048Z,17.30
2022-10-12T16:54:17.913Z,17.30
2022-10-12T16:57:21.369Z,17.30
2022-10-12T17:00:24.301Z,17.30
2022-10-12T17:03:27.407Z,17.30
2022-10-12T17:06:31.943Z,17.30
2022-10-12T17:09:34.844Z,17.30
2022-10-12T17:12:37.822Z,17.30
2022-10-12T17:15:42.544Z,17.20
2022-10-12T17:18:45.415Z,17.30
2022-10-12T17:21:49.890Z,17.20
2022-10-12T17:24:52.817Z,17.30
2022-10-12T17:27:55.741Z,17.10
2022-10-12T17:30:58.699Z,17.10
2022-10-12T17:34:01.820Z,17.10
2022-10-12T17:37:06.907Z,17.10
2022-10-12T17:40:11.350Z,17.00
2022-10-12T17:43:14.260Z,17.00
2022-10-12T17:46:22.271Z,16.90
2022-10-12T17:49:27.464Z,16.90
2022-10-12T17:52:31.691Z,16.90
2022-10-12T17:55:48.239Z,16.90
2022-10-12T17:58:55.346Z,16.90
2022-10-12T18:01:58.209Z,16.90
2022-10-12T18:05:01.149Z,16.90
2022-10-12T18:08:05.782Z,16.90
2022-10-12T18:11:08.986Z,16.90
2022-10-12T18:14:13.053Z,16.90
2022-10-12T18:17:15.970Z,16.90
2022-10-12T18:20:19.435Z,16.90
2022-10-12T18:23:23.683Z,16.90
2022-10-12T18:26:27.844Z,16.90
2022-10-12T18:29:30.920Z,16.80
2022-10-12T18:32:33.868Z,16.80
2022-10-12T18:35:36.845Z,16.90
2022-10-12T18:38:41.314Z,16.80
2022-10-12T18:41:44.489Z,16.80
2022-10-12T18:44:47.353Z,16.70
2022-10-12T18:47:50.393Z,16.70
2022-10-12T18:50:53.549Z,16.70
2022-10-12T18:53:58.657Z,16.60
2022-10-12T18:57:02.494Z,16.70
2022-10-12T19:00:06.859Z,16.60
2022-10-12T19:03:12.468Z,16.60
2022-10-12T19:06:17.836Z,16.60
2022-10-12T19:09:22.460Z,16.60
2022-10-12T19:12:25.384Z,16.60
2022-10-12T19:15:28.572Z,16.60
2022-10-12T19:18:31.769Z,16.60
2022-10-12T19:21:35.272Z,16.50
2022-10-12T19:24:39.462Z,16.50
2022-10-12T19:27:42.361Z,16.50
2022-10-12T19:30:45.265Z,16.40
2022-10-12T19:33:48.462Z,16.40
2022-10-12T19:36:51.721Z,16.40
2022-10-12T19:39:55.934Z,16.30
2022-10-12T19:42:58.831Z,16.20
2022-10-12T19:46:04.276Z,16.20
2022-10-12T19:49:07.337Z,16.10
2022-10-12T19:52:10.212Z,16.10
2022-10-12T19:55:14.542Z,16.10
2022-10-12T19:58:17.471Z,16.00
2022-10-12T20:01:22.603Z,15.90
2022-10-12T20:04:25.495Z,15.90
2022-10-12T20:07:28.349Z,15.90
2022-10-12T20:10:32.565Z,15.80
2022-10-12T20:13:35.920Z,15.80
2022-10-12T20:16:39.063Z,15.70
2022-10-12T20:19:41.979Z,15.60
2022-10-12T20:22:44.854Z,15.60
2022-10-12T20:25:51.097Z,15.60
2022-10-12T20:28:55.451Z,15.60
2022-10-12T20:31:58.361Z,15.50
2022-10-12T20:35:01.823Z,15.50
2022-10-12T20:38:05.209Z,15.50
2022-10-12T20:41:12.316Z,15.50
2022-10-12T20:44:15.700Z,15.40
2022-10-12T20:47:18.947Z,15.40
2022-10-12T20:50:22.001Z,15.30
2022-10-12T20:53:25.338Z,15.30
2022-10-12T20:56:29.924Z,15.20
2022-10-12T20:59:34.552Z,15.20
2022-10-12T21:02:38.460Z,15.10
2022-10-12T21:05:41.323Z,15.10
2022-10-12T21:08:44.701Z,15.10
2022-10-12T21:11:48.940Z,15.10
2022-10-12T21:14:51.896Z,15.10
2022-10-12T21:17:54.739Z,15.00
2022-10-12T21:20:58.883Z,15.00
2022-10-12T21:24:03.780Z,14.90
2022-10-12T21:27:08.220Z,14.90
2022-10-12T21:30:11.791Z,14.90
2022-10-12T21:33:15.216Z,14.80
2022-10-12T21:36:19.824Z,14.80
2022-10-12T21:39:22.692Z,14.80
2022-10-12T21:42:28.968Z,14.70
2022-10-12T21:45:31.891Z,14.60
2022-10-12T21:48:35.430Z,14.60
2022-10-12T21:51:38.710Z,14.60
2022-10-12T21:54:41.604Z,14.60
2022-10-12T21:57:45.967Z,14.50
2022-10-12T22:00:49.006Z,14.50
2022-10-12T22:03:54.624Z,14.50
2022-10-12T22:07:00.533Z,14.50
2022-10-12T22:10:03.848Z,14.50
2022-10-12T22:13:08.307Z,14.40
2022-10-12T22:16:14.504Z,14.30
2022-10-12T22:19:19.452Z,14.30
2022-10-12T22:22:22.341Z,14.20
2022-10-12T22:25:25.239Z,14.20
2022-10-12T22:28:29.555Z,14.20
2022-10-12T22:31:32.849Z,14.10
2022-10-12T22:34:35.701Z,14.10
2022-10-12T22:37:38.760Z,14.10
2022-10-12T22:40:41.599Z,14.10
2022-10-12T22:43:46.035Z,14.00
2022-10-12T22:46:48.911Z,14.00
2022-10-12T22:49:51.908Z,13.90
2022-10-12T22:52:54.813Z,13.90
2022-10-12T22:56:00.821Z,13.90
2022-10-12T22:59:07.146Z,13.90
2022-10-12T23:02:10.039Z,13.90
2022-10-12T23:05:12.901Z,13.80
2022-10-12T23:08:16.274Z,13.80
2022-10-12T23:11:21.039Z,13.80
2022-10-12T23:14:25.293Z,13.80
2022-10-12T23:17:28.409Z,13.70
2022-10-12T23:20:31.271Z,13.60
2022-10-12T23:23:35.270Z,13.70
2022-10-12T23:26:38.110Z,13.60
2022-10-12T23:29:42.431Z,13.60
2022-10-12T23:32:45.267Z,13.60
2022-10-12T23:35:56.257Z,13.60
2022-10-12T23:39:01.101Z,13.60
2022-10-12T23:42:03.952Z,13.50
2022-10-12T23:45:08.750Z,13.50
2022-10-12T23:48:11.608Z,13.50
2022-10-12T23:51:14.584Z,13.50
2022-10-12T23:54:17.449Z,13.50
